createdAt,value
2022-09-04T00:00:56.925Z,58.94
2022-09-04T00:06:34.396Z,59.14
2022-09-04T00:12:11.175Z,58.86
2022-09-04T00:18:05.857Z,59.11
2022-09-04T00:23:45.322Z,59.55
2022-09-04T00:29:21.824Z,59.42
2022-09-04T00:35:11.705Z,59.28
2022-09-04T00:41:07.894Z,59.27
2022-09-04T00:46:48.041Z,59.41
2022-09-04T00:52:50.083Z,59.50
2022-09-04T00:58:36.826Z,59.57
2022-09-04T01:04:29.383Z,59.61
2022-09-04T01:10:27.043Z,60.08
2022-09-04T01:16:05.542Z,59.52
2022-09-04T01:22:14.254Z,59.72
2022-09-04T01:27:45.802Z,60.10
2022-09-04T01:33:48.497Z,59.75
2022-09-04T01:39:22.338Z,60.08
2022-09-04T01:44:53.933Z,59.83
2022-09-04T01:50:26.870Z,59.88
2022-09-04T01:56:19.128Z,59.87
2022-09-04T02:01:58.142Z,59.98
2022-09-04T02:07:34.586Z,60.21
2022-09-04T02:13:15.274Z,60.00
2022-09-04T02:19:05.237Z,60.02
2022-09-04T02:25:01.264Z,60.15
2022-09-04T02:30:47.001Z,60.44
2022-09-04T02:36:38.974Z,60.25
2022-09-04T02:42:32.496Z,60.45
2022-09-04T02:48:09.455Z,60.43
2022-09-04T02:54:03.379Z,60.56
2022-09-04T02:59:55.856Z,60.59
2022-09-04T03:05:32.015Z,60.53
2022-09-04T03:11:24.044Z,60.68
2022-09-04T03:17:13.283Z,60.87
2022-09-04T03:22:50.443Z,60.72
2022-09-04T03:28:40.135Z,60.45
2022-09-04T03:34:52.433Z,61.02
2022-09-04T03:40:23.446Z,60.82
2022-09-04T03:46:23.578Z,60.62
2022-09-04T03:52:00.606Z,60.93
2022-09-04T03:58:16.740Z,60.72
2022-09-04T04:03:56.638Z,61.01
2022-09-04T04:09:40.548Z,61.37
2022-09-04T04:15:56.241Z,60.82
2022-09-04T04:22:06.237Z,60.92
2022-09-04T04:28:22.711Z,61.04
2022-09-04T04:34:07.478Z,61.29
2022-09-04T04:39:56.573Z,61.42
2022-09-04T04:45:53.544Z,61.17
2022-09-04T04:51:48.566Z,61.15
2022-09-04T04:57:35.756Z,61.21
2022-09-04T05:03:17.164Z,61.00
2022-09-04T05:09:15.000Z,61.20
2022-09-04T05:15:09.045Z,61.18
2022-09-04T05:20:58.527Z,61.31
2022-09-04T05:26:36.925Z,61.42
2022-09-04T05:32:23.735Z,61.51
2022-09-04T05:38:13.959Z,61.96
2022-09-04T05:44:14.428Z,61.86
2022-09-04T05:50:03.760Z,61.96
2022-09-04T05:55:49.916Z,61.77
2022-09-04T06:01:26.873Z,62.10
2022-09-04T06:07:13.556Z,62.03
2022-09-04T06:13:09.344Z,62.13
2022-09-04T06:19:02.993Z,62.32
2022-09-04T06:24:59.157Z,62.06
2022-09-04T06:30:53.913Z,62.31
2022-09-04T06:36:28.673Z,62.86
2022-09-04T06:42:31.022Z,62.78
2022-09-04T06:48:27.194Z,62.22
2022-09-04T06:54:05.205Z,62.17
2022-09-04T06:59:54.925Z,61.96
2022-09-04T07:05:44.298Z,61.69
2022-09-04T07:11:38.426Z,60.93
2022-09-04T07:17:28.494Z,61.52
2022-09-04T07:23:10.815Z,61.13
2022-09-04T07:29:16.624Z,61.35
2022-09-04T07:35:09.435Z,61.54
2022-09-04T07:40:52.079Z,61.46
2022-09-04T07:46:33.649Z,62.46
2022-09-04T07:52:21.832Z,62.39
2022-09-04T07:58:31.743Z,63.06
2022-09-04T08:04:22.656Z,63.22
2022-09-04T08:10:17.193Z,64.60
2022-09-04T08:16:10.739Z,64.37
2022-09-04T08:21:43.700Z,63.68
2022-09-04T08:27:30.481Z,64.81
2022-09-04T08:33:21.673Z,64.77
2022-09-04T08:39:06.644Z,64.49
2022-09-04T08:45:16.107Z,65.02
2022-09-04T08:51:05.635Z,65.10
2022-09-04T08:56:53.463Z,64.64
2022-09-04T09:02:39.677Z,63.95
2022-09-04T09:08:44.888Z,64.45
2022-09-04T09:14:45.405Z,66.09
2022-09-04T09:20:30.359Z,65.60
2022-09-04T09:26:24.665Z,65.81
2022-09-04T09:32:15.061Z,67.23
2022-09-04T09:38:04.994Z,67.65
2022-09-04T09:44:03.771Z,65.90
2022-09-04T09:49:53.970Z,66.48
2022-09-04T09:55:39.773Z,65.19
2022-09-04T10:01:20.170Z,64.92
2022-09-04T10:07:06.676Z,64.76
2022-09-04T10:12:46.790Z,65.80
2022-09-04T10:18:33.700Z,65.39
2022-09-04T10:24:29.808Z,64.77
2022-09-04T10:30:23.568Z,64.25
2022-09-04T10:36:10.267Z,64.44
2022-09-04T10:41:54.194Z,63.71
2022-09-04T10:47:40.803Z,63.74
2022-09-04T10:53:15.286Z,64.28
2022-09-04T10:59:05.077Z,63.27
2022-09-04T11:05:02.886Z,63.72
2022-09-04T11:10:51.663Z,65.03
2022-09-04T11:16:57.269Z,64.04
2022-09-04T11:22:41.382Z,64.21
2022-09-04T11:28:56.205Z,64.07
2022-09-04T11:34:42.786Z,64.40
2022-09-04T11:40:46.371Z,62.42
2022-09-04T11:46:35.846Z,62.39
2022-09-04T11:52:17.300Z,62.65
2022-09-04T11:58:14.199Z,62.77
2022-09-04T12:04:15.729Z,63.01
2022-09-04T12:09:58.792Z,63.43
2022-09-04T12:15:55.968Z,64.31
2022-09-04T12:21:53.413Z,63.15
2022-09-04T12:27:59.450Z,61.88
2022-09-04T12:33:42.928Z,61.50
2022-09-04T12:39:40.438Z,61.19
2022-09-04T12:45:21.153Z,61.05
2022-09-04T12:51:12.091Z,60.95
2022-09-04T12:57:07.069Z,59.98
2022-09-04T13:03:22.875Z,59.60
2022-09-04T13:09:13.259Z,58.98
2022-09-04T13:15:08.383Z,59.80
2022-09-04T13:21:09.179Z,59.23
2022-09-04T13:27:02.781Z,60.53
2022-09-04T13:33:04.607Z,60.86
2022-09-04T13:39:11.087Z,60.84
2022-09-04T13:44:57.308Z,61.21
2022-09-04T13:50:52.446Z,61.20
2022-09-04T13:56:35.002Z,60.88
2022-09-04T14:02:09.563Z,60.75
2022-09-04T14:07:45.167Z,60.87
2022-09-04T14:13:37.352Z,61.03
2022-09-04T14:19:32.335Z,61.01
2022-09-04T14:25:11.988Z,61.05
2022-09-04T14:30:52.796Z,61.18
2022-09-04T14:36:35.893Z,61.28
2022-09-04T14:42:42.756Z,61.31
2022-09-04T14:48:17.721Z,61.47
2022-09-04T14:53:56.235Z,61.46
2022-09-04T14:59:36.622Z,61.69
2022-09-04T15:05:20.808Z,61.51
2022-09-04T15:11:00.693Z,62.07
2022-09-04T15:16:40.709Z,62.11
2022-09-04T15:22:22.508Z,62.14
2022-09-04T15:28:08.429Z,62.12
2022-09-04T15:33:40.458Z,62.30
2022-09-04T15:39:32.564Z,62.32
2022-09-04T15:45:18.302Z,62.29
2022-09-04T15:51:33.056Z,62.08
2022-09-04T15:57:20.492Z,61.98
2022-09-04T16:03:03.465Z,61.77
2022-09-04T16:08:45.215Z,61.72
2022-09-04T16:14:51.689Z,61.92
2022-09-04T16:20:51.558Z,61.85
2022-09-04T16:26:31.222Z,61.91
2022-09-04T16:32:04.580Z,62.01
2022-09-04T16:38:03.017Z,61.92
2022-09-04T16:43:34.736Z,61.66
2022-09-04T16:49:22.257Z,62.05
2022-09-04T16:55:07.878Z,62.06
2022-09-04T17:01:14.524Z,61.90
2022-09-04T17:07:07.958Z,61.97
2022-09-04T17:12:58.794Z,61.93
2022-09-04T17:18:31.096Z,61.71
2022-09-04T17:29:11.655Z,61.93
2022-09-04T17:30:04.986Z,61.74
2022-09-04T17:40:32.699Z,61.77
2022-09-04T17:41:55.821Z,61.77
2022-09-04T17:47:43.164Z,61.47
2022-09-04T17:53:33.702Z,61.74
2022-09-04T17:59:23.118Z,61.76
2022-09-04T18:04:57.612Z,61.74
2022-09-04T18:10:39.124Z,61.80
2022-09-04T18:16:31.192Z,61.92
2022-09-04T18:22:25.880Z,61.94
2022-09-04T18:28:12.453Z,62.17
2022-09-04T18:37:24.740Z,62.27
2022-09-04T18:40:07.940Z,62.22
2022-09-04T18:50:35.288Z,62.31
2022-09-04T18:51:52.665Z,62.16
2022-09-04T18:57:48.143Z,62.28
2022-09-04T19:03:24.021Z,62.43
2022-09-04T19:08:57.569Z,62.16
2022-09-04T19:14:39.185Z,62.26
2022-09-04T19:20:14.191Z,62.50
2022-09-04T19:25:50.277Z,62.45
2022-09-04T19:31:34.142Z,62.37
2022-09-04T19:38:27.530Z,62.36
2022-09-04T19:46:09.323Z,62.32
2022-09-04T19:53:21.234Z,62.14
2022-09-04T19:55:45.895Z,62.34
2022-09-04T20:01:20.721Z,62.45
2022-09-04T20:06:58.519Z,62.49
2022-09-04T20:12:34.284Z,62.35
2022-09-04T20:18:11.869Z,62.23
2022-09-04T20:23:46.019Z,62.43
2022-09-04T20:30:01.757Z,62.52
2022-09-04T20:35:46.299Z,62.59
2022-09-04T20:41:27.366Z,62.26
2022-09-04T20:52:44.664Z,62.08
2022-09-04T20:53:46.820Z,62.30
2022-09-04T21:03:08.032Z,62.03
2022-09-04T21:06:12.739Z,62.06
2022-09-04T21:11:47.499Z,62.31
2022-09-04T21:17:43.338Z,61.84
2022-09-04T21:23:26.402Z,61.62
2022-09-04T21:29:20.383Z,61.21
2022-09-04T21:35:02.338Z,61.10
2022-09-04T21:40:51.141Z,61.06
2022-09-04T21:46:41.893Z,61.04
2022-09-04T21:52:16.155Z,61.28
2022-09-04T22:02:36.516Z,60.98
2022-09-04T22:04:06.425Z,60.61
2022-09-04T22:13:27.588Z,60.38
2022-09-04T22:16:06.159Z,60.87
2022-09-04T22:21:55.421Z,60.61
2022-09-04T22:28:08.489Z,60.24
2022-09-04T22:34:17.234Z,60.47
2022-09-04T22:39:51.645Z,60.56
2022-09-04T22:45:36.621Z,60.49
2022-09-04T22:51:45.349Z,60.45
2022-09-04T22:57:26.074Z,60.42
2022-09-04T23:03:09.610Z,60.48
2022-09-04T23:13:44.522Z,60.34
2022-09-04T23:15:08.485Z,60.62
2022-09-04T23:26:35.249Z,60.52
2022-09-04T23:27:04.686Z,60.49
2022-09-04T23:33:09.659Z,60.50
2022-09-04T23:39:05.269Z,60.57
2022-09-04T23:45:23.234Z,60.40
2022-09-04T23:51:26.567Z,60.71
2022-09-04T23:57:37.561Z,60.78
